Time;durP1;ratioP1;P1;durP2;ratioP2;P2;SDS_P1;SDS_P2;PMS_P1;PMS_P2;Temp;Humidity;BMP_temperature;BMP_pressure;BME280_temperature;BME280_humidity;BME280_pressure;Samples;Min_cycle;Max_cycle;Signal;HPM_P1;HPM_P2
2022/12/07 00:01:34;;;;;;;13.40;8.20;;;;;;;1.37;98.86;97916.76;103137;1289;137572;-76
2022/12/07 00:04:04;;;;;;;14.20;8.80;;;;;;;1.37;98.69;97913.20;103401;1291;23890;-76
2022/12/07 00:06:39;;;;;;;13.90;8.80;;;;;;;1.38;98.84;97914.86;102979;1310;137773;-76
2022/12/07 00:09:10;;;;;;;11.70;8.30;;;;;;;1.39;98.75;97914.02;102969;1295;22472;-76
2022/12/07 00:11:37;;;;;;;15.30;8.90;;;;;;;1.40;98.69;97919.61;103287;1304;24341;-76
2022/12/07 00:14:07;;;;;;;15.50;8.50;;;;;;;1.40;98.64;97914.08;103234;1290;138181;-76
2022/12/07 00:16:35;;;;;;;15.50;8.80;;;;;;;1.40;98.68;97908.00;102978;1287;22489;-76
2022/12/07 00:19:03;;;;;;;15.50;8.70;;;;;;;1.40;98.54;97904.13;103409;1290;139378;-76
2022/12/07 00:21:33;;;;;;;12.70;8.30;;;;;;;1.39;98.29;97905.36;103084;1304;24283;-76
2022/12/07 00:24:00;;;;;;;;;;;;;;;1.37;98.39;97902.51;103080;1296;22413;-76
2022/12/07 00:26:30;;;;;;;14.20;8.50;;;;;;;1.38;98.53;97907.25;103126;1295;124820;-76
2022/12/07 00:29:01;;;;;;;12.90;7.50;;;;;;;1.36;98.57;97903.13;103214;1312;22537;-76
2022/12/07 00:31:33;;;;;;;14.40;9.40;;;;;;;1.35;98.47;97907.10;102987;1291;137581;-76
2022/12/07 00:34:00;;;;;;;13.70;8.90;;;;;;;1.36;98.83;97910.34;102991;1296;22480;-76
2022/12/07 00:36:27;;;;;;;14.10;8.60;;;;;;;1.37;98.83;97908.91;102945;1302;139072;-75
2022/12/07 00:38:57;;;;;;;14.20;9.00;;;;;;;1.40;98.99;97906.44;103307;1305;22736;-76
2022/12/07 00:41:26;;;;;;;14.20;8.30;;;;;;;1.41;99.01;97909.30;103240;1311;24250;-76
2022/12/07 00:43:54;;;;;;;12.20;8.70;;;;;;;1.43;99.17;97907.98;103194;1281;137599;-76
2022/12/07 00:46:22;;;;;;;11.80;8.70;;;;;;;1.45;99.11;97903.95;103120;1291;23203;-76
2022/12/07 00:48:51;;;;;;;13.30;8.80;;;;;;;1.45;98.84;97903.54;103366;1288;138215;-76
2022/12/07 00:51:20;;;;;;;18.10;9.00;;;;;;;1.45;98.76;97900.15;103175;1313;24289;-76
2022/12/07 00:53:47;;;;;;;13.30;8.30;;;;;;;1.47;98.92;97899.70;103400;1285;22471;-76
2022/12/07 00:56:24;;;;;;;13.00;8.80;;;;;;;1.48;98.92;97897.60;103102;1304;137790;-76
2022/12/07 00:58:56;;;;;;;10.80;7.70;;;;;;;1.48;98.86;97894.76;103286;1298;22460;-76
2022/12/07 01:01:26;;;;;;;12.50;8.30;;;;;;;1.48;98.70;97894.67;103190;1312;137782;-76
2022/12/07 01:03:53;;;;;;;12.50;8.50;;;;;;;1.48;98.85;97892.45;103307;1291;22347;-76
2022/12/07 01:06:21;;;;;;;12.50;8.10;;;;;;;1.49;98.70;97899.16;102814;1297;137725;-76
2022/12/07 01:08:49;;;;;;;9.70;7.00;;;;;;;1.49;98.70;97896.13;103335;1283;22693;-76
2022/12/07 01:11:19;;;;;;;13.00;8.20;;;;;;;1.48;98.68;97896.58;103357;1305;26710;-76
2022/12/07 01:13:46;;;;;;;12.60;7.90;;;;;;;1.47;98.62;97891.73;103115;1311;138115;-76
2022/12/07 01:16:16;;;;;;;13.00;7.60;;;;;;;1.46;98.31;97888.63;103354;1302;22576;-76
2022/12/07 01:18:47;;;;;;;10.90;7.60;;;;;;;1.44;98.56;97884.91;103072;1305;138463;-76
2022/12/07 01:21:20;;;;;;;13.40;8.50;;;;;;;1.42;98.40;97884.11;103039;1304;24453;-76
2022/12/07 01:23:48;;;;;;;12.50;6.60;;;;;;;1.40;98.35;97882.73;103198;1290;22512;-76
2022/12/07 01:26:18;;;;;;;12.40;8.30;;;;;;;1.38;98.41;97878.58;103341;1306;137755;-76
2022/12/07 01:28:45;;;;;;;9.80;7.40;;;;;;;1.36;98.39;97881.02;103057;1312;22546;-76
2022/12/07 01:31:15;;;;;;;10.30;7.40;;;;;;;1.33;98.50;97877.73;102945;1291;152280;-76
2022/12/07 01:33:44;;;;;;;11.90;7.80;;;;;;;1.32;98.56;97875.66;103405;1291;25303;-76
2022/12/07 01:36:19;;;;;;;;;;;;;;;1.33;98.81;97874.55;103099;1297;137793;-75
2022/12/07 01:39:04;;;;;;;10.40;6.90;;;;;;;1.33;98.93;97877.81;103231;1291;25819;-75
2022/12/07 01:41:34;;;;;;;11.60;7.00;;;;;;;1.30;98.90;97871.48;103074;1304;25520;-75
2022/12/07 01:44:32;;;;;;;9.90;7.40;;;;;;;1.29;98.83;97870.48;103005;1312;137690;-76
2022/12/07 01:47:02;;;;;;;9.60;7.30;;;;;;;1.28;99.09;97869.34;102389;1318;24043;-76
2022/12/07 01:49:35;;;;;;;8.90;6.20;;;;;;;1.28;99.40;97869.29;102478;1318;137490;-76
2022/12/07 01:52:18;;;;;;;10.50;6.70;;;;;;;1.28;99.19;97868.71;102561;1309;22511;-76
2022/12/07 01:54:47;;;;;;;10.10;6.40;;;;;;;1.29;99.39;97868.75;102337;1317;138572;-76
2022/12/07 01:57:15;;;;;;;;;;;;;;;1.30;99.32;97870.99;102728;1310;25449;-75
2022/12/07 01:59:45;;;;;;;9.60;6.70;;;;;;;1.28;99.12;97870.36;102829;1310;22827;-76
2022/12/07 02:02:20;;;;;;;9.60;6.00;;;;;;;1.26;98.99;97867.63;102261;1297;137579;-76
2022/12/07 02:04:47;;;;;;;10.10;6.90;;;;;;;1.24;98.85;97867.70;102767;1318;24291;-76
2022/12/07 02:07:15;;;;;;;10.20;6.90;;;;;;;1.22;98.78;97869.23;102455;1303;137609;-75
2022/12/07 02:09:42;;;;;;;9.30;6.00;;;;;;;1.20;98.93;97870.50;102453;1309;22482;-75
2022/12/07 02:12:09;;;;;;;9.00;6.20;;;;;;;1.18;98.83;97868.42;103008;1298;22631;-76
2022/12/07 02:14:37;;;;;;;9.80;6.40;;;;;;;1.16;98.84;97863.01;102892;1295;22498;-75
2022/12/07 02:17:23;;;;;;;9.60;6.00;;;;;;;1.14;98.73;97859.53;102703;1304;24253;-76
2022/12/07 02:19:53;;;;;;;9.30;6.50;;;;;;;1.12;98.83;97861.00;102710;1295;137660;-76
2022/12/07 02:22:41;;;;;;;8.50;5.80;;;;;;;1.10;98.81;97861.13;102270;1318;24470;-75
2022/12/07 02:25:30;;;;;;;8.70;6.10;;;;;;;1.06;98.72;97861.06;102870;1302;137405;-75
2022/12/07 02:28:04;;;;;;;9.60;6.30;;;;;;;1.05;98.73;97869.80;103234;1288;22506;-76
2022/12/07 02:30:36;;;;;;;9.20;6.70;;;;;;;1.02;98.78;97872.27;103445;1293;138774;-75
2022/12/07 02:33:28;;;;;;;8.30;6.00;;;;;;;1.01;98.97;97866.90;103429;1295;22488;-75
2022/12/07 02:36:10;;;;;;;9.00;6.00;;;;;;;0.99;98.80;97867.30;103383;1288;25254;-75
2022/12/07 02:38:49;;;;;;;8.90;6.70;;;;;;;0.97;98.68;97867.08;103450;1287;22669;-76
2022/12/07 02:41:26;;;;;;;10.70;6.50;;;;;;;0.96;98.96;97866.45;103138;1305;24349;-75
2022/12/07 02:44:07;;;;;;;8.80;6.20;;;;;;;0.95;98.92;97867.61;103156;1288;137556;-75
2022/12/07 02:46:48;;;;;;;9.40;6.10;;;;;;;0.94;99.10;97866.70;103439;1304;22947;-76
2022/12/07 02:49:16;;;;;;;11.30;6.90;;;;;;;0.93;98.89;97865.58;103067;1288;138211;-75
2022/12/07 02:51:45;;;;;;;11.20;6.70;;;;;;;0.92;99.03;97863.71;102986;1305;22519;-76
2022/12/07 02:54:14;;;;;;;;;;;;;;;0.91;99.15;97862.22;103136;1296;22568;-76
2022/12/07 02:56:46;;;;;;;9.10;5.90;;;;;;;0.89;98.95;97857.02;103075;1304;23235;-75
2022/12/07 02:59:31;;;;;;;10.00;6.00;;;;;;;0.88;99.13;97859.45;103210;1304;22464;-75
2022/12/07 03:02:04;;;;;;;8.60;6.20;;;;;;;0.85;99.04;97855.34;103204;1293;139322;-75
2022/12/07 03:04:37;;;;;;;10.40;6.70;;;;;;;0.85;99.22;97852.13;103003;1293;25326;-75
2022/12/07 03:07:16;;;;;;;8.00;5.70;;;;;;;0.84;99.28;97848.65;102871;1293;138049;-76
2022/12/07 03:10:11;;;;;;;8.20;6.40;;;;;;;0.85;99.30;97849.16;102992;1298;22884;-76
2022/12/07 03:13:07;;;;;;;9.90;6.30;;;;;;;0.83;99.38;97844.16;103865;1280;139234;-75
2022/12/07 03:15:52;;;;;;;9.90;7.00;;;;;;;0.84;99.33;97847.42;104128;1289;23865;-76
2022/12/07 03:18:22;;;;;;;10.10;7.60;;;;;;;0.85;99.48;97844.70;103075;1289;137548;-75
2022/12/07 03:20:53;;;;;;;9.20;6.80;;;;;;;0.84;99.34;97842.92;103120;1304;25395;-75
2022/12/07 03:23:23;;;;;;;9.20;6.60;;;;;;;0.85;99.41;97847.01;103163;1288;22476;-76
2022/12/07 03:25:57;;;;;;;11.10;6.90;;;;;;;0.84;99.27;97843.00;103032;1296;137493;-76
2022/12/07 03:28:28;;;;;;;12.50;7.40;;;;;;;0.84;99.35;97842.46;102933;1289;22515;-76
2022/12/07 03:31:14;;;;;;;10.00;6.70;;;;;;;0.84;99.47;97838.75;102936;1309;137704;-75
2022/12/07 03:34:02;;;;;;;9.90;6.90;;;;;;;0.84;99.52;97840.98;103125;1311;22463;-75
2022/12/07 03:36:38;;;;;;;11.80;7.40;;;;;;;0.85;99.51;97837.00;102982;1294;137648;-75
2022/12/07 03:39:27;;;;;;;10.20;6.90;;;;;;;0.86;99.49;97832.21;103763;1295;22483;-76
2022/12/07 03:41:55;;;;;;;8.80;6.90;;;;;;;0.85;99.39;97830.76;103220;1305;22514;-76
2022/12/07 03:44:23;;;;;;;10.40;7.00;;;;;;;0.84;99.43;97829.52;102818;1291;137496;-75
2022/12/07 03:47:15;;;;;;;10.60;6.50;;;;;;;0.85;99.48;97828.92;102943;1313;24262;-75
2022/12/07 03:49:58;;;;;;;8.30;6.70;;;;;;;0.87;99.54;97821.92;103008;1308;137746;-75
2022/12/07 03:52:33;;;;;;;11.00;7.10;;;;;;;0.88;99.57;97820.27;103080;1290;22466;-75
2022/12/07 03:55:11;;;;;;;11.60;7.40;;;;;;;0.89;99.61;97815.33;102925;1313;137782;-75
2022/12/07 03:57:41;;;;;;;12.60;8.10;;;;;;;0.90;99.50;97815.95;103228;1305;22477;-75
2022/12/07 04:00:10;;;;;;;12.90;8.20;;;;;;;0.91;99.54;97814.60;102962;1288;25245;-75
2022/12/07 04:02:42;;;;;;;11.30;7.60;;;;;;;0.91;99.39;97812.41;102996;1298;137311;-75
2022/12/07 04:05:10;;;;;;;13.40;8.60;;;;;;;0.91;99.45;97816.38;103084;1302;24249;-75
2022/12/07 04:07:37;;;;;;;14.10;8.80;;;;;;;0.91;99.30;97812.98;102829;1290;137579;-75
2022/12/07 04:10:05;;;;;;;14.20;9.20;;;;;;;0.90;99.31;97813.92;103065;1286;25476;-76
2022/12/07 04:12:32;;;;;;;13.40;9.10;;;;;;;0.89;99.21;97813.68;103042;1290;137746;-75
2022/12/07 04:14:59;;;;;;;11.80;8.20;;;;;;;0.89;99.27;97814.14;103016;1298;22487;-75
2022/12/07 04:17:26;;;;;;;13.50;8.40;;;;;;;0.91;99.38;97813.52;103033;1309;22476;-75
2022/12/07 04:19:53;;;;;;;14.00;9.10;;;;;;;0.92;99.48;97813.98;102953;1296;138690;-75
2022/12/07 04:22:19;;;;;;;13.90;8.80;;;;;;;0.92;99.46;97814.64;103074;1301;25341;-75
2022/12/07 04:24:46;;;;;;;15.40;9.70;;;;;;;0.93;99.42;97817.02;102908;1291;137827;-75
2022/12/07 04:27:13;;;;;;;18.80;10.20;;;;;;;0.92;99.18;97812.59;102979;1296;22485;-75
2022/12/07 04:29:40;;;;;;;18.50;10.20;;;;;;;0.92;99.35;97812.85;103039;1291;22580;-74
2022/12/07 04:32:07;;;;;;;21.40;11.80;;;;;;;0.92;99.12;97814.23;102839;1291;137717;-74
2022/12/07 04:34:34;;;;;;;23.00;12.20;;;;;;;0.91;99.16;97810.97;103005;1312;22950;-74
2022/12/07 04:37:01;;;;;;;26.00;12.90;;;;;;;0.91;99.15;97812.08;102947;1288;138107;-74
2022/12/07 04:39:30;;;;;;;26.00;13.00;;;;;;;0.90;99.00;97811.45;103060;1289;22466;-74
2022/12/07 04:41:58;;;;;;;31.20;13.60;;;;;;;0.89;98.84;97812.40;103157;1303;22487;-74
2022/12/07 04:44:26;;;;;;;30.30;13.60;;;;;;;0.88;98.94;97811.73;102934;1291;138102;-74
2022/12/07 04:46:54;;;;;;;33.70;14.90;;;;;;;0.86;98.71;97810.16;102986;1312;22481;-74
2022/12/07 04:49:21;;;;;;;38.60;17.60;;;;;;;0.85;98.64;97812.17;102890;1312;137995;-74
2022/12/07 04:51:48;;;;;;;35.10;16.70;;;;;;;0.82;98.25;97809.84;102999;1293;25251;-73
2022/12/07 04:54:16;;;;;;;27.70;13.50;;;;;;;0.79;98.58;97812.01;102946;1313;22734;-73
2022/12/07 04:56:43;;;;;;;21.60;11.90;;;;;;;0.78;98.55;97806.82;103066;1312;22488;-73
2022/12/07 04:59:11;;;;;;;17.20;10.00;;;;;;;0.76;98.37;97805.98;103051;1298;22610;-73
2022/12/07 05:01:38;;;;;;;15.80;9.80;;;;;;;0.73;98.33;97811.48;102921;1301;137765;-72
2022/12/07 05:04:06;;;;;;;12.80;8.70;;;;;;;0.72;98.45;97812.05;103029;1291;22606;-72
2022/12/07 05:06:33;;;;;;;12.00;7.10;;;;;;;0.68;98.30;97811.63;102834;1306;137760;-73
2022/12/07 05:09:00;;;;;;;15.00;9.10;;;;;;;0.63;97.95;97812.10;103205;1291;24397;-72
2022/12/07 05:11:40;;;;;;;14.90;9.40;;;;;;;0.59;98.09;97807.80;103039;1289;23649;-72
2022/12/07 05:14:09;;;;;;;;;;;;;;;0.57;98.21;97807.48;102869;1297;143146;-73
2022/12/07 05:16:37;;;;;;;14.50;9.00;;;;;;;0.55;98.50;97809.70;103204;1310;25659;-72
2022/12/07 05:19:04;;;;;;;15.00;9.60;;;;;;;0.51;98.62;97808.98;102952;1298;137601;-72
2022/12/07 05:21:31;;;;;;;13.10;8.80;;;;;;;0.48;98.67;97807.59;103139;1289;24324;-72
2022/12/07 05:23:59;;;;;;;16.30;10.20;;;;;;;0.45;98.64;97806.76;103042;1303;22495;-72
2022/12/07 05:26:26;;;;;;;15.50;9.80;;;;;;;0.42;98.96;97805.02;102779;1311;138179;-72
2022/12/07 05:28:55;;;;;;;16.20;11.10;;;;;;;0.40;99.10;97809.03;103021;1312;22480;-72
2022/12/07 05:31:23;;;;;;;17.50;11.20;;;;;;;0.38;99.30;97811.32;102937;1297;138364;-72
2022/12/07 05:33:50;;;;;;;21.50;11.70;;;;;;;0.38;99.48;97812.40;102058;1291;1332308;-73
2022/12/07 05:36:18;;;;;;;19.40;11.20;;;;;;;0.37;99.53;97809.46;102962;1313;22478;-73
2022/12/07 05:38:45;;;;;;;18.40;12.00;;;;;;;0.36;99.76;97811.44;102984;1294;22479;-73
2022/12/07 05:44:01;;;;;;;23.10;13.20;;;;;;;0.35;99.87;97810.28;102949;1291;137752;-72
2022/12/07 05:46:27;;;;;;;19.90;13.00;;;;;;;0.35;99.98;97810.69;103136;1312;22484;-72
2022/12/07 05:48:54;;;;;;;19.90;12.70;;;;;;;0.35;99.98;97808.85;102921;1312;138051;-72
2022/12/07 05:51:22;;;;;;;23.40;12.60;;;;;;;0.35;100.00;97813.00;103010;1312;22864;-72
2022/12/07 05:53:48;;;;;;;17.70;12.40;;;;;;;0.34;100.00;97813.40;103055;1294;22490;-72
2022/12/07 05:56:16;;;;;;;21.40;12.40;;;;;;;0.36;100.00;97815.23;103061;1291;137995;-73
2022/12/07 06:01:28;;;;;;;20.50;12.50;;;;;;;0.39;100.00;97816.56;102822;1312;138467;-73
2022/12/07 06:03:55;;;;;;;20.60;11.70;;;;;;;0.40;100.00;97819.33;103081;1292;22475;-73
2022/12/07 06:06:22;;;;;;;24.10;13.20;;;;;;;0.40;100.00;97817.02;102832;1304;140335;-73
2022/12/07 06:08:49;;;;;;;23.30;12.20;;;;;;;0.41;100.00;97820.15;103188;1313;22485;-73
2022/12/07 06:14:01;;;;;;;23.70;11.80;;;;;;;0.43;100.00;97818.98;103074;1296;138300;-73
2022/12/07 06:16:28;;;;;;;22.30;12.50;;;;;;;0.44;100.00;97819.19;102972;1291;22495;-73
2022/12/07 06:18:55;;;;;;;17.50;10.50;;;;;;;0.45;100.00;97820.31;102880;1307;138179;-73
2022/12/07 06:21:22;;;;;;;18.00;9.80;;;;;;;0.46;100.00;97824.40;102926;1298;22602;-73
2022/12/07 06:23:49;;;;;;;19.50;9.40;;;;;;;0.48;100.00;97821.52;103243;1288;22621;-74
2022/12/07 06:26:16;;;;;;;15.90;10.10;;;;;;;0.49;100.00;97819.43;103103;1292;138715;-73
2022/12/07 06:28:43;;;;;;;16.40;9.40;;;;;;;0.50;100.00;97818.73;103617;1285;22473;-73
2022/12/07 06:31:10;;;;;;;14.30;7.80;;;;;;;0.52;100.00;97819.04;103111;1305;137885;-74
2022/12/07 06:33:36;;;;;;;15.50;9.00;;;;;;;0.53;100.00;97820.56;103176;1296;22625;-73
2022/12/07 06:36:04;;;;;;;14.50;8.10;;;;;;;0.54;100.00;97821.48;103737;1303;22605;-74
2022/12/07 06:38:31;;;;;;;16.70;9.00;;;;;;;0.54;100.00;97825.07;104179;1293;138343;-73
2022/12/07 06:40:57;;;;;;;13.70;8.50;;;;;;;0.56;100.00;97823.47;103100;1302;23046;-73
2022/12/07 06:43:24;;;;;;;13.90;8.40;;;;;;;0.59;100.00;97826.26;102944;1299;137756;-73
2022/12/07 06:45:51;;;;;;;12.30;8.10;;;;;;;0.61;100.00;97830.46;102977;1304;22518;-74
2022/12/07 06:48:18;;;;;;;15.10;9.20;;;;;;;0.63;100.00;97833.44;103483;1287;22532;-73
2022/12/07 06:50:46;;;;;;;13.80;8.80;;;;;;;0.64;100.00;97832.13;103500;1288;138042;-74
2022/12/07 06:53:13;;;;;;;14.30;8.90;;;;;;;0.66;100.00;97837.06;103884;1294;22527;-73
2022/12/07 06:55:40;;;;;;;16.40;8.70;;;;;;;0.67;100.00;97836.89;103147;1288;137849;-73
2022/12/07 06:58:07;;;;;;;15.60;9.80;;;;;;;0.68;100.00;97836.61;103498;1312;22520;-74
2022/12/07 07:00:35;;;;;;;15.90;8.90;;;;;;;0.69;100.00;97839.55;102952;1312;137990;-73
2022/12/07 07:03:02;;;;;;;16.10;9.80;;;;;;;0.69;100.00;97837.40;103073;1310;22760;-74
2022/12/07 07:05:29;;;;;;;17.80;11.50;;;;;;;0.70;100.00;97839.06;103074;1303;22503;-74
2022/12/07 07:07:55;;;;;;;17.90;11.10;;;;;;;0.71;100.00;97839.11;103470;1289;138551;-73
2022/12/07 07:10:22;;;;;;;18.00;11.00;;;;;;;0.70;100.00;97834.36;103192;1313;22479;-73
2022/12/07 07:12:49;;;;;;;19.40;11.00;;;;;;;0.73;100.00;97834.26;103387;1295;138343;-74
2022/12/07 07:15:17;;;;;;;17.00;10.70;;;;;;;0.79;100.00;97837.30;104764;1292;23271;-74
2022/12/07 07:17:44;;;;;;;16.90;10.30;;;;;;;0.79;100.00;97844.42;103243;1312;25282;-73
2022/12/07 07:20:11;;;;;;;16.90;10.70;;;;;;;0.78;100.00;97844.55;103096;1303;138320;-74
2022/12/07 07:22:38;;;;;;;15.70;10.20;;;;;;;0.77;100.00;97845.48;103284;1312;22635;-74
2022/12/07 07:25:06;;;;;;;19.70;10.50;;;;;;;0.77;100.00;97849.44;103057;1292;138106;-76
2022/12/07 07:27:32;;;;;;;15.00;10.20;;;;;;;0.77;100.00;97845.15;103927;1294;24356;-74
2022/12/07 07:29:59;;;;;;;19.40;10.90;;;;;;;0.80;100.00;97840.64;103775;1294;23116;-74
2022/12/07 07:32:26;;;;;;;18.50;11.10;;;;;;;0.81;100.00;97842.25;104339;1287;137925;-74
2022/12/07 07:34:53;;;;;;;20.20;11.20;;;;;;;0.81;100.00;97841.93;104295;1301;25543;-74
2022/12/07 07:37:20;;;;;;;20.30;10.60;;;;;;;0.81;100.00;97839.69;103886;1294;138053;-74
2022/12/07 07:39:47;;;;;;;18.00;10.30;;;;;;;0.78;100.00;97844.84;104565;1287;25562;-74
2022/12/07 07:42:15;;;;;;;19.20;10.90;;;;;;;0.79;100.00;97843.59;105048;1286;23743;-74
2022/12/07 07:44:43;;;;;;;20.70;11.50;;;;;;;0.80;100.00;97846.95;103813;1299;137926;-74
2022/12/07 07:47:10;;;;;;;17.00;10.50;;;;;;;0.81;100.00;97845.42;104016;1289;23807;-75
2022/12/07 07:49:37;;;;;;;17.90;10.30;;;;;;;0.81;100.00;97849.60;104014;1311;138402;-74
2022/12/07 07:52:07;;;;;;;18.60;11.60;;;;;;;0.82;100.00;97850.75;103336;1307;22703;-74
2022/12/07 07:54:35;;;;;;;18.20;11.30;;;;;;;0.84;100.00;97855.38;103080;1313;138875;-74
2022/12/07 07:57:02;;;;;;;19.10;10.70;;;;;;;0.85;100.00;97852.84;103123;1292;22618;-74
2022/12/07 07:59:30;;;;;;;16.50;10.80;;;;;;;0.86;100.00;97852.92;103904;1312;25304;-74
2022/12/07 08:01:57;;;;;;;21.40;11.50;;;;;;;0.86;100.00;97851.69;102915;1312;139102;-74
2022/12/07 08:04:23;;;;;;;19.40;11.50;;;;;;;0.87;100.00;97855.65;103516;1291;23700;-74
2022/12/07 08:07:00;;;;;;;19.70;10.80;;;;;;;0.89;100.00;97852.69;103546;1302;138698;-74
2022/12/07 08:09:27;;;;;;;18.70;10.70;;;;;;;0.90;100.00;97853.35;103852;1306;22476;-74
2022/12/07 08:11:56;;;;;;;17.70;9.60;;;;;;;0.91;100.00;97855.66;103299;1297;22557;-74
2022/12/07 08:14:31;;;;;;;19.50;11.70;;;;;;;0.93;100.00;97859.02;103494;1302;140565;-74
2022/12/07 08:17:00;;;;;;;20.90;12.00;;;;;;;0.94;100.00;97866.66;103042;1305;22494;-74
2022/12/07 08:19:30;;;;;;;17.90;11.00;;;;;;;0.97;100.00;97867.95;103928;1298;137998;-74
2022/12/07 08:22:01;;;;;;;20.80;11.60;;;;;;;1.00;100.00;97868.50;103389;1290;24414;-75
2022/12/07 08:24:29;;;;;;;16.80;10.10;;;;;;;1.04;100.00;97870.99;103000;1306;138461;-74
2022/12/07 08:26:56;;;;;;;17.00;9.40;;;;;;;1.06;100.00;97870.30;103575;1304;25332;-74
2022/12/07 08:29:23;;;;;;;15.90;9.30;;;;;;;1.10;100.00;97871.45;103655;1304;22474;-74
2022/12/07 08:31:49;;;;;;;15.50;9.10;;;;;;;1.13;100.00;97869.42;103454;1312;137809;-74
2022/12/07 08:34:16;;;;;;;12.60;8.00;;;;;;;1.16;100.00;97870.89;103446;1303;22477;-74
2022/12/07 08:36:43;;;;;;;11.90;7.60;;;;;;;1.17;100.00;97872.13;103038;1304;137846;-74
2022/12/07 08:39:10;;;;;;;13.30;8.40;;;;;;;1.21;100.00;97871.16;103515;1289;24254;-74
2022/12/07 08:41:37;;;;;;;12.50;7.40;;;;;;;1.23;100.00;97873.68;103032;1313;24703;-75
2022/12/07 08:44:05;;;;;;;9.50;6.60;;;;;;;1.24;100.00;97871.59;103466;1313;137826;-74
2022/12/07 08:46:37;;;;;;;12.60;7.10;;;;;;;1.25;99.98;97873.04;103562;1290;24065;-74
2022/12/07 08:49:12;;;;;;;13.80;7.90;;;;;;;1.29;100.00;97875.08;103707;1309;137670;-74
2022/12/07 08:51:40;;;;;;;12.10;7.80;;;;;;;1.34;100.00;97878.02;103007;1304;22476;-74
2022/12/07 08:54:11;;;;;;;13.50;7.70;;;;;;;1.39;100.00;97877.23;103072;1306;22612;-75
2022/12/07 08:56:39;;;;;;;11.40;7.50;;;;;;;1.43;100.00;97883.39;103293;1291;137780;-74
2022/12/07 08:59:07;;;;;;;15.00;8.20;;;;;;;1.48;100.00;97885.66;104092;1291;25352;-74
2022/12/07 09:01:34;;;;;;;10.20;6.80;;;;;;;1.52;100.00;97886.96;103116;1313;137778;-74
2022/12/07 09:04:01;;;;;;;11.40;7.30;;;;;;;1.54;99.90;97881.82;103203;1292;22472;-74
2022/12/07 09:06:28;;;;;;;13.80;7.20;;;;;;;1.56;99.64;97883.05;103229;1298;138197;-75
2022/12/07 09:08:59;;;;;;;15.40;8.50;;;;;;;1.58;99.80;97884.42;103595;1294;22956;-75
2022/12/07 09:11:26;;;;;;;12.40;8.40;;;;;;;1.61;99.84;97887.86;103284;1293;22573;-75
2022/12/07 09:13:53;;;;;;;11.10;7.10;;;;;;;1.64;99.81;97887.50;102931;1293;138223;-74
2022/12/07 09:16:21;;;;;;;11.70;7.70;;;;;;;1.64;99.12;97885.84;103254;1301;25260;-75
2022/12/07 09:18:49;;;;;;;14.20;7.50;;;;;;;1.64;99.04;97883.00;103396;1294;137988;-74
2022/12/07 09:21:16;;;;;;;8.60;6.70;;;;;;;1.65;98.84;97883.83;103254;1303;24301;-75
2022/12/07 09:23:43;;;;;;;11.90;8.00;;;;;;;1.65;99.12;97882.84;103430;1296;23227;-75
2022/12/07 09:26:10;;;;;;;12.30;7.60;;;;;;;1.68;99.17;97883.79;103126;1309;139161;-74
2022/12/07 09:28:37;;;;;;;12.20;7.60;;;;;;;1.69;98.86;97884.38;103032;1313;22515;-75
2022/12/07 09:31:05;;;;;;;13.80;9.10;;;;;;;1.67;98.88;97878.47;103065;1304;137819;-74
2022/12/07 09:33:33;;;;;;;13.20;7.70;;;;;;;1.70;98.62;97882.65;103209;1287;22526;-74
2022/12/07 09:36:00;;;;;;;12.30;8.70;;;;;;;1.70;98.82;97881.48;103078;1306;22483;-75
2022/12/07 09:38:27;;;;;;;11.20;8.00;;;;;;;1.72;98.91;97885.16;103970;1297;137758;-75
2022/12/07 09:40:55;;;;;;;9.70;6.90;;;;;;;1.74;98.92;97880.88;103363;1296;24371;-74
2022/12/07 09:43:25;;;;;;;13.40;7.70;;;;;;;1.75;98.51;97880.05;104145;1285;138912;-74
2022/12/07 09:45:55;;;;;;;11.90;8.30;;;;;;;1.76;98.44;97879.39;103126;1313;23059;-74
2022/12/07 09:48:36;;;;;;;;;;;;;;;1.75;98.20;97876.30;103406;1309;22495;-75
2022/12/07 09:51:11;;;;;;;10.60;7.50;;;;;;;1.72;98.22;97878.76;103068;1294;25467;-75
2022/12/07 09:53:39;;;;;;;11.20;7.60;;;;;;;1.70;98.25;97879.05;103376;1288;22478;-75
2022/12/07 09:56:06;;;;;;;11.00;7.60;;;;;;;1.69;98.43;97880.79;103129;1288;137946;-74
2022/12/07 09:58:33;;;;;;;11.20;7.60;;;;;;;1.68;98.27;97876.27;103129;1291;22486;-75
2022/12/07 10:01:10;;;;;;;12.20;8.00;;;;;;;1.67;98.42;97871.36;102859;1312;137799;-74
2022/12/07 10:03:40;;;;;;;11.20;7.40;;;;;;;1.67;98.53;97873.96;103022;1311;22478;-74
2022/12/07 10:06:07;;;;;;;14.00;7.60;;;;;;;1.67;98.41;97873.88;103186;1296;25300;-75
2022/12/07 10:08:34;;;;;;;14.00;8.30;;;;;;;1.66;98.40;97869.95;103289;1305;137586;-75
2022/12/07 10:11:10;;;;;;;14.40;8.50;;;;;;;1.66;98.65;97867.52;103107;1297;25435;-74
2022/12/07 10:14:13;;;;;;;10.20;7.80;;;;;;;1.67;98.73;97869.01;103417;1304;137623;-74
2022/12/07 10:16:41;;;;;;;13.30;7.60;;;;;;;1.67;98.45;97864.80;103130;1296;24170;-75
2022/12/07 10:19:28;;;;;;;13.10;7.70;;;;;;;1.65;98.16;97863.88;103504;1296;139759;-74
2022/12/07 10:22:16;;;;;;;14.40;8.70;;;;;;;1.64;98.21;97859.09;103076;1312;24100;-74
2022/12/07 10:24:47;;;;;;;13.30;8.80;;;;;;;1.73;99.42;97856.98;103011;1301;137850;-74
2022/12/07 10:27:19;;;;;;;12.80;8.50;;;;;;;1.76;99.01;97855.56;103111;1289;24821;-74
2022/12/07 10:29:52;;;;;;;14.90;9.00;;;;;;;1.76;98.93;97848.71;103411;1310;22484;-74
2022/12/07 10:32:19;;;;;;;14.60;8.60;;;;;;;1.76;98.64;97850.81;103156;1288;137573;-74
2022/12/07 10:34:46;;;;;;;13.60;9.10;;;;;;;1.76;98.61;97845.45;103029;1291;22542;-74
2022/12/07 10:37:12;;;;;;;12.40;8.50;;;;;;;1.77;98.51;97846.86;103688;1284;137709;-74
2022/12/07 10:39:45;;;;;;;14.00;9.20;;;;;;;1.78;98.62;97843.27;104112;1293;25219;-74
2022/12/07 10:42:23;;;;;;;15.40;9.00;;;;;;;1.81;98.92;97842.90;104096;1295;22640;-74
2022/12/07 10:45:09;;;;;;;17.20;9.40;;;;;;;1.83;98.80;97841.13;103046;1289;137638;-74
2022/12/07 10:48:02;;;;;;;13.20;9.20;;;;;;;1.89;99.08;97833.04;103379;1288;24223;-74
2022/12/07 10:50:37;;;;;;;14.30;9.00;;;;;;;1.96;99.32;97829.79;103791;1294;137576;-75
2022/12/07 10:53:13;;;;;;;19.30;9.50;;;;;;;2.03;99.23;97827.02;103375;1289;23148;-74
2022/12/07 10:55:49;;;;;;;16.10;9.90;;;;;;;2.11;98.91;97820.61;104141;1290;137987;-74
2022/12/07 10:58:35;;;;;;;15.10;10.30;;;;;;;2.19;99.03;97827.39;103408;1284;22915;-74
2022/12/07 11:01:44;;;;;;;17.90;10.50;;;;;;;2.28;99.27;97816.15;103032;1298;138107;-74
2022/12/07 11:04:37;;;;;;;15.20;9.50;;;;;;;2.38;99.56;97811.92;104074;1284;22888;-75
2022/12/07 11:07:19;;;;;;;19.40;10.20;;;;;;;2.45;99.56;97809.35;103023;1294;138457;-75
2022/12/07 11:09:55;;;;;;;15.20;9.60;;;;;;;2.52;99.34;97809.83;103216;1294;26694;-74
2022/12/07 11:12:32;;;;;;;14.30;9.30;;;;;;;2.57;99.12;97809.08;102829;1294;25224;-75
2022/12/07 11:15:25;;;;;;;15.90;9.40;;;;;;;2.62;98.92;97807.59;102548;1302;138371;-74
2022/12/07 11:18:21;;;;;;;12.80;8.50;;;;;;;2.65;98.78;97808.44;103082;1290;25329;-75
2022/12/07 11:21:15;;;;;;;11.70;8.10;;;;;;;2.65;98.21;97810.06;103487;1299;137925;-75
2022/12/07 11:24:00;;;;;;;11.60;8.30;;;;;;;2.64;97.98;97806.27;103023;1303;22845;-75
2022/12/07 11:27:05;;;;;;;12.50;7.80;;;;;;;2.61;97.75;97807.05;102802;1295;138018;-75
2022/12/07 11:30:03;;;;;;;13.00;7.90;;;;;;;2.56;97.14;97814.59;103185;1300;22376;-75
2022/12/07 11:32:54;;;;;;;15.60;7.80;;;;;;;2.51;97.14;97810.27;102624;1316;138031;-74
2022/12/07 11:35:21;;;;;;;11.50;8.30;;;;;;;2.46;97.06;97807.83;102936;1291;24229;-75
2022/12/07 11:37:51;;;;;;;11.70;7.80;;;;;;;2.45;97.19;97805.63;103661;1294;137669;-75
2022/12/07 11:40:36;;;;;;;15.30;8.80;;;;;;;2.47;97.39;97800.71;104048;1288;23926;-75
2022/12/07 11:43:05;;;;;;;13.80;8.10;;;;;;;2.50;97.47;97801.19;103302;1295;138589;-75
2022/12/07 11:45:36;;;;;;;10.60;7.90;;;;;;;2.52;97.33;97803.10;103020;1298;25340;-74
2022/12/07 11:48:12;;;;;;;11.80;8.20;;;;;;;2.54;97.17;97802.84;102748;1306;22496;-75